San Diego State University, California
Current Conditions -  °F | °C
As of 8:56 PM on Monday 20 Oct 2014 (Local Time) from KNRS Reporting Station
Broken Clouds Broken Clouds  
Wind Chill: 69°   Ceiling: 1800
Heat Index: 69°   Visibility: 10mi
Dew Point: 62°   Wind: 6mph
Humidity: 78%   Direction: 310°NW
Pressure: 29.92"   Gusts: NA
Location:  32.6353°N, 117.099°W
Report Text: KNRS 210356Z 31005KT 10SM BKN018 21/17 A2992 RMK AO2 SLP130 T02060167
Loading
Personal Weather Stations






























Interactive Weather Map
Tropical Storm Tracking
New forecast layout! Learn more

10-Day Weather Forecast

Advertisements
Track Severe Weather on mobile